Time;durP1;ratioP1;P1;durP2;ratioP2;P2;SDS_P1;SDS_P2;PMS_P1;PMS_P2;Temp;Humidity;BMP_temperature;BMP_pressure;BME280_temperature;BME280_humidity;BME280_pressure;Samples;Min_cycle;Max_cycle;Signal;HPM_P1;HPM_P2
2022/11/18 00:00:28;;;;;;;;;;;20.00;47.20;18.80;99267.00;;;;5027067;28;19940;-67
2022/11/18 00:02:53;;;;;;;;;;;20.00;47.20;18.80;99265.00;;;;5025525;28;20473;-67
2022/11/18 00:05:19;;;;;;;;;;;20.00;47.20;18.80;99264.00;;;;5032599;28;20354;-67
2022/11/18 00:07:44;;;;;;;;;;;20.00;47.20;18.80;99268.00;;;;5024642;28;19959;-68
2022/11/18 00:10:10;;;;;;;;;;;20.00;47.20;18.80;99263.00;;;;5031982;28;19916;-67
2022/11/18 00:15:20;;;;;;;;;;;20.00;47.20;18.80;99271.00;;;;5027425;28;19919;-67
2022/11/18 00:17:46;;;;;;;;;;;20.00;47.20;18.80;99274.00;;;;5024372;28;19939;-68
2022/11/18 00:20:12;;;;;;;;;;;20.00;47.20;18.80;99276.00;;;;5036747;28;20290;-68
2022/11/18 00:22:37;;;;;;;;;;;19.90;47.20;18.80;99267.00;;;;5023833;28;19920;-68
2022/11/18 00:25:03;;;;;;;;;;;19.90;47.20;18.80;99273.00;;;;5030075;28;19917;-68
2022/11/18 00:27:30;;;;;;;;;;;19.90;47.20;18.80;99274.00;;;;5029147;28;19928;-68
2022/11/18 00:29:55;;;;;;;;;;;19.90;47.20;18.80;99274.00;;;;5028078;28;19917;-67
2022/11/18 00:32:21;;;;;;;;;;;19.90;47.20;18.80;99283.00;;;;5022058;28;19913;-68
2022/11/18 00:34:47;;;;;;;;;;;19.90;47.20;18.80;99289.00;;;;5031067;28;19920;-68
2022/11/18 00:37:12;;;;;;;;;;;19.90;47.30;18.70;99289.00;;;;5028176;28;19921;-68
2022/11/18 00:39:38;;;;;;;;;;;19.90;47.90;18.80;99295.00;;;;5025771;28;19913;-68
2022/11/18 00:44:48;;;;;;;;;;;19.90;47.20;18.70;99290.00;;;;5028243;28;20008;-68
2022/11/18 00:47:14;;;;;;;;;;;19.90;47.30;18.70;99294.00;;;;5028257;28;19913;-68
2022/11/18 00:49:39;;;;;;;;;;;19.90;47.20;18.70;99297.00;;;;5033953;28;19979;-68
2022/11/18 00:52:05;;;;;;;;;;;19.90;47.20;18.70;99290.00;;;;5029811;28;20268;-68
2022/11/18 00:54:31;;;;;;;;;;;19.90;47.20;18.70;99294.00;;;;5023622;28;19918;-68
2022/11/18 00:56:56;;;;;;;;;;;19.90;47.20;18.70;99294.00;;;;5029012;28;19913;-68
2022/11/18 00:59:22;;;;;;;;;;;19.90;47.20;18.70;99300.00;;;;5023681;28;20441;-68
2022/11/18 01:01:48;;;;;;;;;;;19.90;47.20;18.70;99294.00;;;;5027380;28;19920;-68
2022/11/18 01:04:13;;;;;;;;;;;19.90;47.20;18.70;99305.00;;;;5029693;28;19913;-67
2022/11/18 01:06:39;;;;;;;;;;;19.90;47.30;18.70;99298.00;;;;5026189;28;20390;-68
2022/11/18 01:09:05;;;;;;;;;;;19.90;47.20;18.70;99314.00;;;;5033720;28;19909;-68
2022/11/18 01:14:15;;;;;;;;;;;19.90;47.20;18.70;99324.00;;;;5025791;28;19968;-68
2022/11/18 01:16:40;;;;;;;;;;;19.90;47.30;18.70;99318.00;;;;5025074;28;19914;-68
2022/11/18 01:19:06;;;;;;;;;;;19.80;47.20;18.70;99321.00;;;;5028482;28;19975;-68
2022/11/18 01:21:32;;;;;;;;;;;19.90;47.30;18.70;99323.00;;;;5025845;28;19918;-68
2022/11/18 01:23:57;;;;;;;;;;;19.80;47.20;18.70;99325.00;;;;5024157;28;20354;-68
2022/11/18 01:26:23;;;;;;;;;;;19.90;47.30;18.70;99329.00;;;;5028854;28;19913;-68
2022/11/18 01:28:49;;;;;;;;;;;19.80;47.20;18.70;99335.00;;;;5026867;28;19967;-68
2022/11/18 01:31:17;;;;;;;;;;;19.80;47.20;18.70;99335.00;;;;5031092;28;20263;-68
2022/11/18 01:33:43;;;;;;;;;;;19.80;47.20;18.70;99331.00;;;;5024133;28;20365;-68
2022/11/18 01:36:18;;;;;;;;;;;19.80;47.90;18.70;99330.00;;;;5028433;28;19909;-68
2022/11/18 01:38:44;;;;;;;;;;;19.90;47.30;18.60;99338.00;;;;5028995;28;20421;-67
2022/11/18 01:41:10;;;;;;;;;;;19.90;47.30;18.60;99339.00;;;;5032342;28;19913;-68
2022/11/18 01:43:49;;;;;;;;;;;19.80;47.20;18.70;99340.00;;;;5018324;28;19921;-67
2022/11/18 01:46:15;;;;;;;;;;;19.80;47.20;18.60;99338.00;;;;5026085;28;19949;-68
2022/11/18 01:48:41;;;;;;;;;;;19.80;47.20;18.60;99344.00;;;;5027224;28;19955;-67
2022/11/18 01:51:09;;;;;;;;;;;19.80;47.20;18.60;99345.00;;;;5024897;28;19913;-67
2022/11/18 01:53:37;;;;;;;;;;;19.80;47.20;18.60;99343.00;;;;5020621;28;19909;-67
2022/11/18 01:56:07;;;;;;;;;;;19.80;47.20;18.60;99349.00;;;;5025434;28;20208;-67
2022/11/18 01:58:34;;;;;;;;;;;19.80;47.30;18.60;99350.00;;;;5006138;28;19917;-67
2022/11/18 02:01:00;;;;;;;;;;;19.80;47.20;18.60;99355.00;;;;5034824;28;19913;-67
2022/11/18 02:03:26;;;;;;;;;;;19.80;47.20;18.60;99349.00;;;;5024656;28;19913;-67
2022/11/18 02:05:51;;;;;;;;;;;19.80;47.20;18.60;99355.00;;;;5028057;28;19916;-67
2022/11/18 02:08:17;;;;;;;;;;;19.80;47.20;18.60;99360.00;;;;5010474;28;19913;-67
2022/11/18 02:10:43;;;;;;;;;;;19.80;47.20;18.60;99360.00;;;;5026068;28;19913;-67
2022/11/18 02:13:08;;;;;;;;;;;19.80;47.20;18.60;99363.00;;;;5028101;28;20382;-68
2022/11/18 02:15:40;;;;;;;;;;;19.80;47.20;18.60;99363.00;;;;5027563;28;20096;-67
2022/11/18 02:18:27;;;;;;;;;;;19.80;47.20;18.60;99370.00;;;;5023583;28;19966;-68
2022/11/18 02:21:06;;;;;;;;;;;19.80;47.20;18.60;99373.00;;;;5034944;28;19913;-68
2022/11/18 02:23:40;;;;;;;;;;;19.80;47.20;18.60;99370.00;;;;5024869;28;20334;-67
2022/11/18 02:26:31;;;;;;;;;;;19.80;47.20;18.60;99369.00;;;;5028727;28;19955;-67
2022/11/18 02:29:24;;;;;;;;;;;19.80;47.20;18.60;99366.00;;;;5026946;28;19927;-67
2022/11/18 02:32:08;;;;;;;;;;;19.80;47.20;18.60;99366.00;;;;5027350;28;19909;-68
2022/11/18 02:35:05;;;;;;;;;;;19.90;47.30;18.60;99371.00;;;;5035162;28;19920;-68
2022/11/18 02:37:36;;;;;;;;;;;19.80;47.20;18.60;99369.00;;;;5032822;28;19913;-68
2022/11/18 02:40:14;;;;;;;;;;;19.80;47.20;18.60;99367.00;;;;5037750;28;19932;-68
2022/11/18 02:42:39;;;;;;;;;;;19.80;47.20;18.60;99372.00;;;;5016103;28;19913;-68
2022/11/18 02:45:07;;;;;;;;;;;19.80;47.20;18.60;99377.00;;;;5037332;28;19920;-68
2022/11/18 02:47:32;;;;;;;;;;;19.80;47.20;18.60;99376.00;;;;5009948;28;19913;-68
2022/11/18 02:50:04;;;;;;;;;;;19.80;47.20;18.60;99385.00;;;;5040602;28;19913;-68
2022/11/18 02:52:29;;;;;;;;;;;19.70;47.10;18.60;99387.00;;;;5023824;28;19920;-68
2022/11/18 02:54:55;;;;;;;;;;;19.80;47.20;18.60;99385.00;;;;5030067;28;19913;-67
2022/11/18 02:57:21;;;;;;;;;;;19.80;47.20;18.60;99387.00;;;;5022750;28;19920;-68
2022/11/18 02:59:47;;;;;;;;;;;19.70;47.10;18.60;99388.00;;;;5016795;28;19921;-68
2022/11/18 03:02:17;;;;;;;;;;;19.70;47.10;18.60;99400.00;;;;5028080;28;20356;-68
2022/11/18 03:04:44;;;;;;;;;;;19.80;47.20;18.60;99405.00;;;;5033009;28;20355;-68
2022/11/18 03:07:18;;;;;;;;;;;19.70;47.10;18.60;99408.00;;;;5032902;28;19917;-68
2022/11/18 03:09:45;;;;;;;;;;;19.80;47.20;18.60;99409.00;;;;5030387;28;19920;-68
2022/11/18 03:12:23;;;;;;;;;;;19.70;47.10;18.60;99409.00;;;;5033118;28;20370;-68
2022/11/18 03:15:15;;;;;;;;;;;19.80;47.20;18.60;99406.00;;;;5032633;28;20393;-67
2022/11/18 03:17:50;;;;;;;;;;;19.70;47.10;18.50;99418.00;;;;5030071;28;19914;-68
2022/11/18 03:20:25;;;;;;;;;;;19.70;47.10;18.60;99427.00;;;;5030112;28;19940;-68
2022/11/18 03:23:11;;;;;;;;;;;19.70;47.20;18.50;99426.00;;;;5034397;28;19916;-67
2022/11/18 03:25:40;;;;;;;;;;;19.70;47.10;18.50;99433.00;;;;5026706;28;19917;-68
2022/11/18 03:28:27;;;;;;;;;;;19.70;47.20;18.50;99429.00;;;;5038535;28;19913;-68
2022/11/18 03:31:17;;;;;;;;;;;19.70;47.20;18.50;99430.00;;;;5025990;28;19917;-67
2022/11/18 03:34:08;;;;;;;;;;;19.70;47.20;18.50;99425.00;;;;5030134;28;19928;-68
2022/11/18 03:36:37;;;;;;;;;;;19.70;47.20;18.50;99426.00;;;;5030199;28;20283;-68
2022/11/18 03:39:04;;;;;;;;;;;19.70;47.20;18.50;99427.00;;;;5033276;28;20290;-68
2022/11/18 03:41:30;;;;;;;;;;;19.70;47.20;18.50;99430.00;;;;5028566;28;19917;-68
2022/11/18 03:43:59;;;;;;;;;;;19.70;47.20;18.50;99434.00;;;;5039176;28;20314;-68
2022/11/18 03:46:55;;;;;;;;;;;19.70;47.20;18.50;99441.00;;;;5028123;28;19920;-68
2022/11/18 03:49:46;;;;;;;;;;;19.70;47.20;18.50;99430.00;;;;5031075;28;19914;-67
2022/11/18 03:52:14;;;;;;;;;;;19.70;47.20;18.50;99447.00;;;;5032462;28;19916;-67
2022/11/18 03:54:40;;;;;;;;;;;19.70;47.20;18.50;99440.00;;;;5028696;28;19913;-67
2022/11/18 03:57:10;;;;;;;;;;;19.70;47.20;18.50;99449.00;;;;5013643;28;19924;-67
2022/11/18 03:59:39;;;;;;;;;;;19.70;47.20;18.50;99449.00;;;;5028431;28;19922;-68
2022/11/18 04:02:11;;;;;;;;;;;19.70;47.20;18.50;99455.00;;;;5033895;28;19914;-67
2022/11/18 04:04:37;;;;;;;;;;;19.70;47.20;18.50;99443.00;;;;5033236;28;19920;-68
2022/11/18 04:07:10;;;;;;;;;;;19.70;47.10;18.50;99453.00;;;;5034266;28;19914;-68
2022/11/18 04:09:41;;;;;;;;;;;19.60;47.10;18.60;99450.00;;;;5037004;28;19913;-68
2022/11/18 04:12:11;;;;;;;;;;;19.70;47.20;18.60;99461.00;;;;5031311;28;20355;-68
2022/11/18 04:14:37;;;;;;;;;;;19.60;47.10;18.50;99462.00;;;;5024113;28;19913;-67
2022/11/18 04:17:10;;;;;;;;;;;19.70;47.10;18.50;99468.00;;;;5023382;28;20008;-68
2022/11/18 04:19:35;;;;;;;;;;;19.70;47.10;18.50;99475.00;;;;5032225;28;19917;-67
2022/11/18 04:22:01;;;;;;;;;;;19.70;47.20;18.50;99489.00;;;;5032539;28;20066;-68
2022/11/18 04:24:27;;;;;;;;;;;19.70;47.10;18.50;99480.00;;;;5021955;28;19928;-68
2022/11/18 04:26:52;;;;;;;;;;;19.70;47.20;18.50;99482.00;;;;5028435;28;19909;-68
2022/11/18 04:29:18;;;;;;;;;;;19.70;47.10;18.50;99483.00;;;;5030015;28;19936;-68
2022/11/18 04:31:44;;;;;;;;;;;19.70;47.10;18.50;99487.00;;;;5027421;28;19913;-68
2022/11/18 04:34:09;;;;;;;;;;;19.70;47.20;18.50;99490.00;;;;5026015;28;19913;-68
2022/11/18 04:36:35;;;;;;;;;;;19.70;47.10;18.50;99485.00;;;;5022333;28;19913;-67
2022/11/18 04:39:01;;;;;;;;;;;19.70;47.20;18.50;99490.00;;;;5026008;28;19913;-68
2022/11/18 04:44:13;;;;;;;;;;;19.70;47.10;18.50;99497.00;;;;5032785;28;19919;-68
2022/11/18 04:46:42;;;;;;;;;;;19.70;47.10;18.50;99493.00;;;;5029802;28;19956;-68
2022/11/18 04:49:08;;;;;;;;;;;19.70;47.10;18.50;99494.00;;;;5028951;28;19958;-68
2022/11/18 04:51:34;;;;;;;;;;;19.70;47.10;18.50;99502.00;;;;5038435;28;19913;-68
2022/11/18 04:54:00;;;;;;;;;;;19.70;47.20;18.50;99504.00;;;;5028591;28;19917;-68
2022/11/18 04:56:25;;;;;;;;;;;19.70;47.20;18.50;99497.00;;;;5032991;28;20195;-68
2022/11/18 04:58:51;;;;;;;;;;;19.70;47.10;18.50;99504.00;;;;5029927;28;20267;-68
2022/11/18 05:01:17;;;;;;;;;;;19.70;47.10;18.50;99507.00;;;;5024027;28;19920;-68
2022/11/18 05:03:42;;;;;;;;;;;19.70;47.20;18.50;99515.00;;;;5029984;28;20365;-68
2022/11/18 05:06:08;;;;;;;;;;;19.70;47.20;18.50;99520.00;;;;5023964;28;19939;-68
2022/11/18 05:08:34;;;;;;;;;;;19.70;47.10;18.50;99516.00;;;;5025696;28;19920;-68
2022/11/18 05:13:44;;;;;;;;;;;19.70;47.20;18.50;99517.00;;;;5025675;28;20316;-68
2022/11/18 05:16:09;;;;;;;;;;;19.70;47.20;18.50;99516.00;;;;5029874;28;19913;-68
2022/11/18 05:18:35;;;;;;;;;;;19.70;47.20;18.50;99524.00;;;;5026249;28;20283;-67
2022/11/18 05:21:04;;;;;;;;;;;19.70;47.20;18.50;99519.00;;;;5033674;28;19917;-68
2022/11/18 05:23:33;;;;;;;;;;;19.70;47.20;18.50;99530.00;;;;5029810;28;20367;-68
2022/11/18 05:26:05;;;;;;;;;;;19.70;47.20;18.50;99535.00;;;;5028856;28;19920;-67
2022/11/18 05:28:31;;;;;;;;;;;19.70;47.20;18.50;99540.00;;;;5024622;28;19920;-67
2022/11/18 05:30:57;;;;;;;;;;;19.70;47.20;18.50;99541.00;;;;5032728;28;19921;-68
2022/11/18 05:33:22;;;;;;;;;;;19.70;47.20;18.50;99535.00;;;;5028562;28;19924;-68
2022/11/18 05:35:48;;;;;;;;;;;19.60;47.10;18.50;99539.00;;;;5034350;28;19921;-68
2022/11/18 05:38:14;;;;;;;;;;;19.70;47.20;18.50;99547.00;;;;5024438;28;20359;-67
2022/11/18 05:40:42;;;;;;;;;;;19.70;47.20;18.50;99549.00;;;;5027451;28;19917;-67
2022/11/18 05:43:12;;;;;;;;;;;19.70;47.20;18.50;99557.00;;;;5039528;28;19920;-68
2022/11/18 05:45:42;;;;;;;;;;;19.70;47.20;18.50;99553.00;;;;5034101;28;19948;-68
2022/11/18 05:48:08;;;;;;;;;;;19.70;47.20;18.50;99557.00;;;;5028007;28;20433;-67
2022/11/18 05:50:36;;;;;;;;;;;19.70;47.30;18.50;99554.00;;;;5034852;28;19917;-68
2022/11/18 05:53:02;;;;;;;;;;;19.70;47.20;18.50;99553.00;;;;5024759;28;20011;-68
2022/11/18 05:55:36;;;;;;;;;;;19.70;47.20;18.50;99568.00;;;;5016560;28;20011;-68
2022/11/18 05:58:02;;;;;;;;;;;19.70;47.20;18.50;99557.00;;;;5017635;28;19921;-67
2022/11/18 06:00:28;;;;;;;;;;;19.70;47.20;18.50;99557.00;;;;5023837;28;20347;-67
2022/11/18 06:02:53;;;;;;;;;;;19.70;47.20;18.50;99562.00;;;;5002428;28;19913;-68
2022/11/18 06:05:19;;;;;;;;;;;19.70;47.20;18.50;99570.00;;;;5024820;28;19924;-68
2022/11/18 06:07:45;;;;;;;;;;;19.70;47.20;18.50;99569.00;;;;5025466;28;20351;-68
2022/11/18 06:10:14;;;;;;;;;;;19.70;47.10;18.50;99573.00;;;;5025317;28;19921;-68
2022/11/18 06:12:41;;;;;;;;;;;19.60;47.10;18.50;99574.00;;;;5023140;28;19913;-68
2022/11/18 06:15:34;;;;;;;;;;;19.70;47.10;18.50;99587.00;;;;5018071;28;20390;-68
2022/11/18 06:18:06;;;;;;;;;;;19.70;47.20;18.50;99593.00;;;;5018986;28;20008;-68
2022/11/18 06:20:32;;;;;;;;;;;19.70;47.10;18.50;99597.00;;;;5021805;28;20114;-68
2022/11/18 06:22:59;;;;;;;;;;;19.70;47.10;18.50;99611.00;;;;5021725;28;19917;-68
2022/11/18 06:25:25;;;;;;;;;;;19.70;47.20;18.50;99611.00;;;;5022541;28;20550;-68
2022/11/18 06:27:51;;;;;;;;;;;19.70;47.10;18.50;99616.00;;;;5023369;28;19916;-67
2022/11/18 06:30:16;;;;;;;;;;;19.70;47.10;18.50;99627.00;;;;5018154;28;20091;-68
2022/11/18 06:32:42;;;;;;;;;;;19.70;47.10;18.50;99624.00;;;;5025861;28;19917;-68
2022/11/18 06:35:08;;;;;;;;;;;19.60;47.10;18.50;99624.00;;;;5021905;28;19966;-67
2022/11/18 06:37:34;;;;;;;;;;;19.70;47.10;18.50;99629.00;;;;5025193;28;20007;-68
2022/11/18 06:39:59;;;;;;;;;;;19.70;47.10;18.50;99627.00;;;;5024679;28;20362;-67
2022/11/18 06:45:12;;;;;;;;;;;19.70;47.10;18.50;99647.00;;;;5022756;28;20424;-68
2022/11/18 06:47:38;;;;;;;;;;;19.70;47.10;18.50;99647.00;;;;5024479;28;19913;-68
2022/11/18 06:50:04;;;;;;;;;;;19.60;47.10;18.50;99644.00;;;;5023614;28;20366;-68
2022/11/18 06:52:30;;;;;;;;;;;19.70;47.10;18.50;99653.00;;;;5018365;28;19913;-67
2022/11/18 06:54:56;;;;;;;;;;;19.70;47.10;18.50;99647.00;;;;5030829;28;19917;-68
2022/11/18 06:57:21;;;;;;;;;;;19.70;47.20;18.50;99649.00;;;;5021883;28;19921;-67
2022/11/18 06:59:47;;;;;;;;;;;19.60;47.10;18.50;99654.00;;;;5027356;28;19925;-68
2022/11/18 07:02:13;;;;;;;;;;;19.70;47.20;18.50;99663.00;;;;5021587;28;20310;-68
2022/11/18 07:04:39;;;;;;;;;;;19.70;47.10;18.50;99658.00;;;;5024733;28;19909;-68
2022/11/18 07:07:06;;;;;;;;;;;19.70;47.20;18.50;99666.00;;;;5020224;28;19923;-67
2022/11/18 07:09:33;;;;;;;;;;;19.70;47.20;18.50;99664.00;;;;5020759;28;19956;-68
2022/11/18 07:11:59;;;;;;;;;;;19.70;47.20;18.50;99662.00;;;;5021256;28;19913;-68
2022/11/18 07:14:28;;;;;;;;;;;19.70;47.20;18.50;99668.00;;;;5025361;28;20043;-67
2022/11/18 07:16:53;;;;;;;;;;;19.60;47.10;18.50;99677.00;;;;5024781;28;19913;-68
2022/11/18 07:19:19;;;;;;;;;;;19.60;47.10;18.50;99678.00;;;;5023788;28;19909;-68
2022/11/18 07:21:45;;;;;;;;;;;19.60;47.10;18.50;99680.00;;;;5027633;28;19913;-68
2022/11/18 07:24:12;;;;;;;;;;;19.70;47.20;18.50;99684.00;;;;5028655;28;19924;-68
2022/11/18 07:26:37;;;;;;;;;;;19.60;47.10;18.50;99687.00;;;;5031151;28;19918;-68
2022/11/18 07:29:03;;;;;;;;;;;19.60;47.10;18.50;99691.00;;;;5024985;28;19915;-68
2022/11/18 07:31:29;;;;;;;;;;;19.60;47.10;18.50;99698.00;;;;5023018;28;19913;-68
2022/11/18 07:33:54;;;;;;;;;;;19.60;47.10;18.50;99694.00;;;;5031382;28;20342;-68
2022/11/18 07:36:25;;;;;;;;;;;19.60;47.10;18.50;99697.00;;;;5031993;28;19920;-68
2022/11/18 07:38:51;;;;;;;;;;;19.60;47.10;18.50;99697.00;;;;5032622;28;20358;-68
2022/11/18 07:41:18;;;;;;;;;;;19.60;47.10;18.50;99699.00;;;;5027287;28;19917;-68
2022/11/18 07:43:44;;;;;;;;;;;19.60;47.20;18.50;99712.00;;;;5028156;28;20346;-68
2022/11/18 07:46:19;;;;;;;;;;;19.60;47.10;18.50;99716.00;;;;5034125;28;19939;-68
2022/11/18 07:48:46;;;;;;;;;;;19.60;47.10;18.50;99715.00;;;;5029436;28;19983;-68
2022/11/18 07:51:12;;;;;;;;;;;19.70;47.20;18.40;99720.00;;;;5031038;28;20012;-68
2022/11/18 07:53:38;;;;;;;;;;;20.10;47.40;18.50;99723.00;;;;5029184;28;19920;-67
2022/11/18 07:56:04;;;;;;;;;;;19.60;47.20;18.50;99731.00;;;;5029262;28;19909;-68
2022/11/18 07:58:30;;;;;;;;;;;19.60;47.10;18.50;99732.00;;;;5025964;28;19921;-67
2022/11/18 08:00:55;;;;;;;;;;;19.70;47.20;18.50;99730.00;;;;5032950;28;19913;-68
2022/11/18 08:03:25;;;;;;;;;;;19.60;47.10;18.50;99742.00;;;;5029910;28;19921;-68
2022/11/18 08:05:51;;;;;;;;;;;19.60;47.20;18.40;99738.00;;;;5036374;28;20419;-68
2022/11/18 08:08:17;;;;;;;;;;;19.60;47.10;18.40;99751.00;;;;5027561;28;19917;-68
2022/11/18 08:10:42;;;;;;;;;;;19.70;47.20;18.50;99752.00;;;;5032021;28;19910;-68
2022/11/18 08:13:08;;;;;;;;;;;19.60;47.10;18.40;99758.00;;;;5032069;28;19917;-68
2022/11/18 08:15:34;;;;;;;;;;;19.60;47.10;18.50;99762.00;;;;5037450;28;20084;-68
2022/11/18 08:17:59;;;;;;;;;;;19.60;47.20;18.40;99763.00;;;;5027706;28;19913;-68
2022/11/18 08:20:26;;;;;;;;;;;19.60;47.10;18.50;99766.00;;;;5026177;28;19917;-68
2022/11/18 08:22:52;;;;;;;;;;;19.60;47.10;18.50;99762.00;;;;5027918;28;20335;-67
2022/11/18 08:25:18;;;;;;;;;;;19.60;47.20;18.50;99766.00;;;;5024058;28;19916;-68
2022/11/18 08:27:43;;;;;;;;;;;19.60;47.10;18.40;99766.00;;;;5030826;28;20306;-68
2022/11/18 08:30:10;;;;;;;;;;;19.60;47.10;18.50;99769.00;;;;5027516;28;19916;-68
2022/11/18 08:32:35;;;;;;;;;;;19.60;47.10;18.50;99778.00;;;;5024924;28;20010;-68
2022/11/18 08:35:01;;;;;;;;;;;19.60;47.10;18.40;99772.00;;;;5031183;28;19913;-68
2022/11/18 08:37:27;;;;;;;;;;;19.60;47.10;18.50;99777.00;;;;5033526;28;19920;-68
2022/11/18 08:39:52;;;;;;;;;;;19.60;47.10;18.50;99776.00;;;;5034513;28;19917;-68
2022/11/18 08:42:21;;;;;;;;;;;19.60;47.10;18.50;99774.00;;;;5032632;28;19913;-67
2022/11/18 08:44:47;;;;;;;;;;;19.60;47.20;18.50;99779.00;;;;5029862;28;19913;-68
2022/11/18 08:47:13;;;;;;;;;;;19.60;47.10;18.40;99777.00;;;;5027234;28;19928;-68
2022/11/18 08:49:39;;;;;;;;;;;19.60;47.10;18.40;99784.00;;;;5028380;28;20263;-68
2022/11/18 08:52:04;;;;;;;;;;;19.60;47.10;18.50;99786.00;;;;5033821;28;19940;-68
2022/11/18 08:54:30;;;;;;;;;;;19.60;47.10;18.40;99785.00;;;;5030078;28;19913;-67
2022/11/18 08:56:56;;;;;;;;;;;19.70;47.10;18.50;99789.00;;;;5033811;28;19916;-67
2022/11/18 08:59:22;;;;;;;;;;;19.60;47.10;18.40;99794.00;;;;5036422;28;19912;-67
2022/11/18 09:01:47;;;;;;;;;;;19.70;47.10;18.40;99799.00;;;;5033245;28;20354;-68
2022/11/18 09:04:13;;;;;;;;;;;19.60;47.10;18.50;99798.00;;;;5026369;28;20294;-67
2022/11/18 09:06:39;;;;;;;;;;;19.70;47.20;18.50;99801.00;;;;5026112;28;19920;-67
2022/11/18 09:09:05;;;;;;;;;;;19.60;47.10;18.50;99801.00;;;;5027487;28;20398;-67
2022/11/18 09:11:31;;;;;;;;;;;19.70;47.10;18.50;99801.00;;;;5020955;28;19913;-67
2022/11/18 09:13:57;;;;;;;;;;;19.60;47.10;18.50;99798.00;;;;5031477;28;19920;-67
2022/11/18 09:16:24;;;;;;;;;;;19.60;47.10;18.40;99806.00;;;;5031258;28;19935;-67
2022/11/18 09:18:50;;;;;;;;;;;19.60;47.10;18.50;99805.00;;;;5027183;28;20030;-67
2022/11/18 09:21:15;;;;;;;;;;;19.60;47.10;18.50;99809.00;;;;5032542;28;20409;-67
2022/11/18 09:23:41;;;;;;;;;;;19.70;47.10;18.50;99813.00;;;;5025751;28;19959;-67
2022/11/18 09:26:11;;;;;;;;;;;19.60;47.10;18.50;99812.00;;;;5024733;28;19913;-68
2022/11/18 09:28:37;;;;;;;;;;;19.60;47.10;18.50;99817.00;;;;5034176;28;19917;-67
2022/11/18 09:31:09;;;;;;;;;;;19.60;47.10;18.40;99817.00;;;;5030974;28;20226;-68
2022/11/18 09:33:35;;;;;;;;;;;19.70;47.10;18.50;99821.00;;;;5024555;28;20006;-67
2022/11/18 09:36:01;;;;;;;;;;;19.60;47.10;18.40;99821.00;;;;5017076;28;19914;-67
2022/11/18 09:38:30;;;;;;;;;;;19.60;47.00;18.40;99826.00;;;;5024941;28;19919;-68
2022/11/18 09:41:05;;;;;;;;;;;19.70;47.10;18.40;99819.00;;;;5024002;28;20007;-67
2022/11/18 09:43:41;;;;;;;;;;;19.60;47.10;18.40;99826.00;;;;5030471;28;19913;-67
2022/11/18 09:46:29;;;;;;;;;;;19.70;47.10;18.40;99828.00;;;;5030039;28;19920;-67
2022/11/18 09:49:11;;;;;;;;;;;19.60;47.10;18.40;99841.00;;;;5022390;28;19913;-67
2022/11/18 09:51:42;;;;;;;;;;;19.60;47.10;18.40;99845.00;;;;5028898;28;19920;-67
2022/11/18 09:54:10;;;;;;;;;;;19.60;47.10;18.40;99850.00;;;;5026016;28;20370;-68
2022/11/18 09:56:36;;;;;;;;;;;19.60;47.10;18.40;99845.00;;;;5024873;28;20382;-67
2022/11/18 09:59:02;;;;;;;;;;;19.60;47.10;18.40;99854.00;;;;5023951;28;19917;-67
2022/11/18 10:01:28;;;;;;;;;;;19.60;47.10;18.40;99852.00;;;;5026881;28;20183;-67
2022/11/18 10:03:53;;;;;;;;;;;19.60;47.10;18.40;99855.00;;;;5034126;28;20072;-67
2022/11/18 10:06:28;;;;;;;;;;;19.70;47.10;18.40;99855.00;;;;5026444;28;20382;-68
2022/11/18 10:09:14;;;;;;;;;;;19.70;47.10;18.40;99859.00;;;;5026465;28;19920;-68
2022/11/18 10:12:10;;;;;;;;;;;19.60;47.10;18.40;99863.00;;;;5031773;28;19921;-67
2022/11/18 10:14:50;;;;;;;;;;;19.60;47.10;18.40;99868.00;;;;5033458;28;20317;-67
2022/11/18 10:17:30;;;;;;;;;;;19.60;47.10;18.40;99875.00;;;;5032791;28;19920;-67
2022/11/18 10:20:17;;;;;;;;;;;19.60;47.10;18.40;99872.00;;;;5015975;28;19918;-67
2022/11/18 10:22:51;;;;;;;;;;;19.60;47.00;18.40;99872.00;;;;5021943;28;19939;-67
2022/11/18 10:25:16;;;;;;;;;;;19.60;47.00;18.40;99877.00;;;;5023002;28;19920;-67
2022/11/18 10:27:44;;;;;;;;;;;19.70;47.10;18.40;99874.00;;;;5023795;28;19913;-67
2022/11/18 10:30:20;;;;;;;;;;;19.60;47.10;18.40;99881.00;;;;5029573;28;20031;-68
2022/11/18 10:32:57;;;;;;;;;;;19.60;47.10;18.40;99883.00;;;;5011383;28;20425;-67
2022/11/18 10:35:27;;;;;;;;;;;19.60;47.00;18.40;99884.00;;;;5035980;28;19958;-67
2022/11/18 10:38:00;;;;;;;;;;;19.60;47.00;18.40;99893.00;;;;5020013;28;20350;-67
2022/11/18 10:40:28;;;;;;;;;;;19.60;47.00;18.40;99891.00;;;;5026634;28;19917;-67
2022/11/18 10:42:54;;;;;;;;;;;19.60;47.00;18.40;99898.00;;;;5028747;28;19958;-67
2022/11/18 10:45:22;;;;;;;;;;;19.60;47.00;18.40;99895.00;;;;5034833;28;20366;-67
2022/11/18 10:48:17;;;;;;;;;;;19.60;47.00;18.40;99896.00;;;;5028432;28;19913;-68
2022/11/18 10:50:44;;;;;;;;;;;19.60;47.00;18.40;99894.00;;;;5012355;28;19999;-69
2022/11/18 10:53:35;;;;;;;;;;;19.60;47.00;18.40;99901.00;;;;5016976;28;19913;-68
2022/11/18 10:56:08;;;;;;;;;;;19.60;47.00;18.40;99892.00;;;;5022189;28;19913;-69
2022/11/18 10:58:57;;;;;;;;;;;19.60;47.00;18.40;99905.00;;;;5028054;28;20382;-68
2022/11/18 11:01:23;;;;;;;;;;;19.60;47.00;18.40;99899.00;;;;5037033;28;20414;-69
2022/11/18 11:04:03;;;;;;;;;;;19.60;47.00;18.40;99899.00;;;;5030674;28;19920;-69
2022/11/18 11:06:30;;;;;;;;;;;19.60;47.00;18.40;99901.00;;;;5032326;28;19920;-69
2022/11/18 11:08:56;;;;;;;;;;;19.60;47.00;18.40;99903.00;;;;5030622;28;19909;-69
2022/11/18 11:11:28;;;;;;;;;;;19.60;47.00;18.40;99903.00;;;;5032787;28;20409;-67
2022/11/18 11:14:05;;;;;;;;;;;19.60;47.00;18.40;99917.00;;;;5014513;28;19913;-68
2022/11/18 11:16:32;;;;;;;;;;;19.60;47.00;18.40;99911.00;;;;5023812;28;20363;-67
2022/11/18 11:18:59;;;;;;;;;;;19.60;46.90;18.40;99906.00;;;;5033844;28;20003;-68
2022/11/18 11:21:26;;;;;;;;;;;19.60;47.00;18.40;99919.00;;;;5028243;28;19924;-68
2022/11/18 11:23:52;;;;;;;;;;;19.60;46.90;18.40;99916.00;;;;5021413;28;19921;-68
2022/11/18 11:26:34;;;;;;;;;;;19.60;46.90;18.40;99919.00;;;;5023461;28;20371;-68
2022/11/18 11:29:24;;;;;;;;;;;19.70;46.90;18.40;99926.00;;;;5020968;28;19920;-67
2022/11/18 11:32:26;;;;;;;;;;;19.60;46.90;18.40;99922.00;;;;5027732;28;20420;-68
2022/11/18 11:35:10;;;;;;;;;;;19.60;46.90;18.40;99929.00;;;;5034461;28;19920;-68
2022/11/18 11:37:45;;;;;;;;;;;19.70;47.00;18.40;99939.00;;;;5025383;28;19979;-68
2022/11/18 11:40:11;;;;;;;;;;;19.60;46.90;18.40;99931.00;;;;5028222;28;19920;-69
2022/11/18 11:42:48;;;;;;;;;;;19.60;46.90;18.40;99934.00;;;;5028139;28;20318;-69
2022/11/18 11:46:11;;;;;;;;;;;19.60;46.90;18.40;99944.00;;;;5029802;28;19986;-69
2022/11/18 11:49:09;;;;;;;;;;;19.60;46.90;18.40;99950.00;;;;5024939;28;19913;-69
2022/11/18 11:51:44;;;;;;;;;;;19.60;46.90;18.40;99946.00;;;;5026172;28;19992;-68
2022/11/18 11:54:23;;;;;;;;;;;19.60;46.90;18.40;99949.00;;;;5029955;28;19913;-68
2022/11/18 11:56:58;;;;;;;;;;;19.60;46.90;18.40;99956.00;;;;5031927;28;19920;-68
2022/11/18 11:59:29;;;;;;;;;;;19.60;46.90;18.40;99953.00;;;;5032131;28;20283;-69
2022/11/18 12:02:09;;;;;;;;;;;19.60;46.90;18.40;99959.00;;;;5026280;28;19964;-68
2022/11/18 12:04:42;;;;;;;;;;;19.60;46.90;18.40;99953.00;;;;5030042;28;19979;-69
2022/11/18 12:07:16;;;;;;;;;;;19.60;46.90;18.40;99955.00;;;;5030062;28;20386;-68
2022/11/18 12:09:58;;;;;;;;;;;19.60;46.90;18.40;99956.00;;;;5034498;28;20183;-68
2022/11/18 12:12:33;;;;;;;;;;;19.60;46.90;18.40;99956.00;;;;5026438;28;19913;-69
2022/11/18 12:15:05;;;;;;;;;;;19.60;46.90;18.40;99957.00;;;;5032519;28;19920;-68
2022/11/18 12:17:33;;;;;;;;;;;19.60;46.90;18.40;99962.00;;;;5033892;28;19925;-69
2022/11/18 12:19:58;;;;;;;;;;;19.60;46.90;18.40;99970.00;;;;5027817;28;20327;-68
2022/11/18 12:23:02;;;;;;;;;;;19.60;46.90;18.40;99971.00;;;;5027270;28;19912;-68
2022/11/18 12:25:46;;;;;;;;;;;19.60;46.80;18.40;99970.00;;;;5019403;28;19996;-69
2022/11/18 12:28:41;;;;;;;;;;;19.60;46.80;18.40;99980.00;;;;5033108;28;19923;-68